Time;durP1;ratioP1;P1;durP2;ratioP2;P2;SDS_P1;SDS_P2;PMS_P1;PMS_P2;Temp;Humidity;BMP_temperature;BMP_pressure;BME280_temperature;BME280_humidity;BME280_pressure;Samples;Min_cycle;Max_cycle;Signal;HPM_P1;HPM_P2
2022/01/14 13:09:35;;;;;;;7.95;2.70;;;14.10;77.00;;;;;;2299505;62;30263;-76
2022/01/14 13:12:17;;;;;;;10.00;2.63;;;14.10;76.90;;;;;;2294880;62;30261;-71
2022/01/14 13:15:45;;;;;;;8.60;2.40;;;14.10;77.70;;;;;;2291172;62;30258;-70
2022/01/14 13:17:43;;;;;;;5.63;2.00;;;14.20;78.70;;;;;;2285289;62;30084;-71
2022/01/14 13:20:10;;;;;;;8.65;2.38;;;14.20;79.50;;;;;;2290483;62;30139;-70
2022/01/14 13:22:37;;;;;;;4.05;1.90;;;14.20;80.10;;;;;;2291071;62;30331;-73
2022/01/14 13:25:07;;;;;;;7.68;2.17;;;14.20;80.40;;;;;;2290852;62;30218;-72
2022/01/14 13:27:39;;;;;;;3.67;1.70;;;14.20;80.70;;;;;;2291262;62;30267;-73
2022/01/14 13:30:07;;;;;;;5.72;2.05;;;14.20;81.10;;;;;;2290334;62;30126;-73
2022/01/14 13:32:34;;;;;;;8.32;2.00;;;14.20;81.30;;;;;;2290414;62;30221;-73
2022/01/14 13:35:14;;;;;;;7.60;2.35;;;14.10;81.40;;;;;;2290052;62;30144;-73
2022/01/14 13:37:42;;;;;;;5.93;2.17;;;14.20;81.40;;;;;;2290856;62;30947;-73
2022/01/14 13:40:14;;;;;;;6.22;2.55;;;14.20;81.70;;;;;;2283564;62;30392;-73
2022/01/14 13:42:41;;;;;;;8.65;1.95;;;14.20;81.70;;;;;;2290594;62;30103;-73
2022/01/14 13:45:16;;;;;;;4.78;1.80;;;14.20;81.70;;;;;;2283388;62;30370;-73
2022/01/14 13:47:42;;;;;;;6.43;2.05;;;14.20;81.70;;;;;;2290841;62;30140;-73
2022/01/14 13:50:11;;;;;;;5.78;2.13;;;14.20;81.80;;;;;;2289430;62;30166;-73
2022/01/14 13:52:37;;;;;;;7.20;2.15;;;14.20;81.90;;;;;;2290293;62;30268;-73
2022/01/14 13:55:03;;;;;;;4.90;1.67;;;14.20;81.80;;;;;;2283114;62;30905;-73
2022/01/14 13:57:29;;;;;;;3.28;1.67;;;14.20;81.70;;;;;;2283019;62;30967;-73
2022/01/14 14:00:05;;;;;;;4.40;1.67;;;14.20;81.60;;;;;;2290811;62;30387;-73
2022/01/14 14:02:31;;;;;;;3.17;1.60;;;14.20;81.30;;;;;;2283717;62;30174;-72
2022/01/14 14:04:58;;;;;;;4.78;1.73;;;14.20;81.70;;;;;;2290919;62;30509;-73
2022/01/14 14:07:25;;;;;;;5.25;1.75;;;14.20;81.70;;;;;;2290945;62;30245;-73
2022/01/14 14:10:31;;;;;;;3.22;1.90;;;14.20;81.50;;;;;;2283834;62;30730;-73
2022/01/14 14:13:09;;;;;;;4.60;1.70;;;14.30;80.90;;;;;;2299450;62;30239;-73
2022/01/14 14:15:49;;;;;;;5.03;2.00;;;14.30;81.30;;;;;;2290430;62;30002;-73
2022/01/14 14:18:16;;;;;;;5.63;2.35;;;14.30;80.80;;;;;;2290831;62;30147;-72
2022/01/14 14:20:41;;;;;;;2.83;1.80;;;14.30;81.10;;;;;;2285865;62;30335;-72
2022/01/14 14:23:21;;;;;;;4.25;2.10;;;14.30;81.10;;;;;;2284921;62;30267;-73
2022/01/14 14:25:48;;;;;;;3.35;1.70;;;14.30;81.10;;;;;;2278610;62;30197;-72
2022/01/14 14:28:14;;;;;;;2.92;1.50;;;14.30;81.10;;;;;;2285412;62;30116;-72
2022/01/14 14:30:48;;;;;;;3.00;1.40;;;14.30;81.10;;;;;;2285415;62;30014;-73
2022/01/14 14:33:14;;;;;;;4.10;1.63;;;14.30;80.90;;;;;;2284704;62;30304;-72
2022/01/14 14:35:41;;;;;;;4.50;1.60;;;14.30;80.90;;;;;;2278078;62;30366;-72
2022/01/14 14:38:11;;;;;;;4.32;1.67;;;14.30;80.90;;;;;;2284836;62;30955;-73
2022/01/14 14:40:39;;;;;;;4.47;1.77;;;14.30;80.80;;;;;;2288260;62;30526;-72
2022/01/14 14:43:05;;;;;;;1.92;1.40;;;14.30;80.70;;;;;;2293674;62;30062;-72
2022/01/14 14:45:32;;;;;;;4.50;1.58;;;14.30;80.80;;;;;;2286006;62;30337;-72
2022/01/14 14:47:57;;;;;;;3.03;1.80;;;14.30;80.90;;;;;;2286201;62;30264;-73
2022/01/14 14:50:24;;;;;;;2.85;1.50;;;14.30;80.80;;;;;;2286116;62;30328;-72
2022/01/14 14:52:50;;;;;;;3.70;1.60;;;14.30;80.80;;;;;;2285956;62;30087;-72
2022/01/14 14:55:18;;;;;;;4.15;1.70;;;14.30;80.80;;;;;;2293729;62;30290;-72
2022/01/14 14:57:44;;;;;;;2.58;1.40;;;14.30;80.80;;;;;;2286153;62;30849;-73
2022/01/14 15:00:11;;;;;;;3.45;1.67;;;14.30;80.70;;;;;;2293309;62;30053;-73
2022/01/14 15:02:38;;;;;;;2.55;1.60;;;14.30;80.60;;;;;;2293557;62;30254;-73
2022/01/14 15:05:04;;;;;;;3.38;1.55;;;14.30;80.70;;;;;;2286176;62;30239;-73
2022/01/14 15:07:31;;;;;;;3.90;1.70;;;14.30;80.70;;;;;;2293225;62;30192;-73
2022/01/14 15:09:57;;;;;;;3.47;1.50;;;14.30;80.60;;;;;;2292419;62;30223;-73
2022/01/14 15:12:23;;;;;;;4.45;1.75;;;14.30;80.60;;;;;;2285241;62;30227;-73
2022/01/14 15:14:53;;;;;;;2.38;1.40;;;14.30;80.50;;;;;;2284425;62;30336;-72
2022/01/14 15:19:50;;;;;;;3.92;1.48;;;14.30;80.30;;;;;;2285247;62;30181;-73
2022/01/14 15:22:16;;;;;;;3.20;1.80;;;14.30;80.30;;;;;;2277552;62;30139;-73
2022/01/14 15:24:42;;;;;;;2.80;1.40;;;14.30;80.50;;;;;;2285110;62;30836;-73
2022/01/14 15:27:09;;;;;;;3.70;1.63;;;14.20;80.40;;;;;;2281445;62;30249;-72
2022/01/14 15:29:35;;;;;;;2.78;1.67;;;14.20;80.50;;;;;;2285373;62;30308;-71
2022/01/14 15:32:01;;;;;;;3.35;1.52;;;14.20;80.50;;;;;;2285826;62;30302;-70
2022/01/14 15:34:27;;;;;;;3.13;1.50;;;14.30;80.50;;;;;;2284992;62;30067;-71
2022/01/14 15:36:53;;;;;;;3.58;1.40;;;14.30;80.40;;;;;;2276381;62;30295;-70
2022/01/14 15:39:26;;;;;;;2.20;1.33;;;14.30;80.30;;;;;;2278029;62;30808;-70
2022/01/14 15:41:51;;;;;;;2.47;1.58;;;14.40;80.20;;;;;;2293000;62;30381;-73
2022/01/14 15:44:20;;;;;;;3.47;1.30;;;14.40;80.20;;;;;;2286642;62;30372;-71
2022/01/14 15:46:46;;;;;;;3.50;1.40;;;14.50;80.20;;;;;;2284850;62;30166;-75
2022/01/14 15:49:13;;;;;;;2.83;1.52;;;14.50;80.10;;;;;;2284674;62;30442;-72
2022/01/14 15:51:40;;;;;;;2.78;1.27;;;14.60;80.10;;;;;;2284847;62;30130;-70
2022/01/14 15:54:06;;;;;;;2.22;1.40;;;14.60;80.00;;;;;;2284815;62;30350;-72
2022/01/14 15:56:32;;;;;;;2.88;1.35;;;14.60;80.00;;;;;;2284005;62;30959;-71
2022/01/14 15:58:57;;;;;;;3.80;1.92;;;14.60;79.90;;;;;;2284817;62;31590;-72
2022/01/14 16:01:23;;;;;;;3.13;1.52;;;14.60;79.90;;;;;;2285660;62;30090;-70
2022/01/14 16:03:51;;;;;;;2.28;1.38;;;14.60;79.90;;;;;;2292967;62;30553;-71
2022/01/14 16:06:17;;;;;;;2.80;1.23;;;14.70;79.90;;;;;;2293040;62;30893;-71
2022/01/14 16:08:43;;;;;;;2.78;1.48;;;14.60;79.90;;;;;;2287835;62;30613;-71
2022/01/14 16:11:09;;;;;;;1.85;1.10;;;14.70;80.00;;;;;;2288590;62;30261;-71
2022/01/14 16:13:40;;;;;;;4.10;1.63;;;14.70;79.90;;;;;;2277181;62;30022;-70
2022/01/14 16:16:07;;;;;;;2.90;1.55;;;14.70;79.90;;;;;;2284773;62;30269;-71
2022/01/14 16:18:33;;;;;;;2.67;1.42;;;14.70;79.90;;;;;;2270499;62;30486;-72
2022/01/14 16:20:59;;;;;;;3.05;1.50;;;14.80;79.90;;;;;;2277663;62;30562;-69
2022/01/14 16:23:25;;;;;;;2.53;1.40;;;14.80;79.90;;;;;;2284945;62;30157;-71
2022/01/14 16:25:51;;;;;;;3.25;1.27;;;14.80;80.50;;;;;;2277153;62;31612;-71
2022/01/14 16:28:18;;;;;;;2.63;1.65;;;14.80;79.60;;;;;;2284779;62;30167;-72
2022/01/14 16:30:50;;;;;;;2.28;1.40;;;14.80;79.60;;;;;;2277374;62;29992;-69
2022/01/14 16:33:16;;;;;;;1.63;1.23;;;14.80;79.70;;;;;;2270903;62;30632;-70
2022/01/14 16:35:46;;;;;;;3.50;1.40;;;14.70;79.70;;;;;;2284675;62;29983;-70
2022/01/14 16:38:13;;;;;;;3.15;1.20;;;14.80;79.70;;;;;;2277036;62;30801;-71
2022/01/14 16:40:45;;;;;;;2.17;1.30;;;14.80;79.70;;;;;;2290181;62;30336;-71
2022/01/14 16:43:11;;;;;;;1.38;1.13;;;14.90;79.80;;;;;;2292854;62;30063;-70
2022/01/14 16:45:37;;;;;;;1.67;1.00;;;15.00;79.80;;;;;;2292265;62;30275;-69
2022/01/14 16:48:04;;;;;;;1.73;1.05;;;15.20;79.70;;;;;;2290444;62;30198;-70
2022/01/14 16:50:30;;;;;;;1.13;0.82;;;15.30;79.60;;;;;;2284128;62;30239;-71
2022/01/14 16:52:56;;;;;;;1.58;1.10;;;15.40;79.40;;;;;;2284410;62;30336;-70
2022/01/14 16:55:21;;;;;;;1.02;0.90;;;15.50;79.20;;;;;;2284570;62;30093;-69
2022/01/14 16:57:47;;;;;;;1.92;1.10;;;15.50;79.00;;;;;;2284560;62;30456;-73
2022/01/14 17:00:15;;;;;;;1.77;1.15;;;15.60;78.90;;;;;;2282290;62;30169;-71
2022/01/14 17:02:44;;;;;;;2.33;1.00;;;15.60;78.80;;;;;;2281109;62;30123;-71
2022/01/14 17:05:10;;;;;;;1.08;1.00;;;15.70;78.70;;;;;;2279545;62;31131;-70
2022/01/14 17:07:37;;;;;;;1.35;1.08;;;15.70;78.60;;;;;;2276926;62;31196;-72
2022/01/14 17:10:03;;;;;;;2.00;1.40;;;15.80;78.60;;;;;;2281449;62;30381;-70
2022/01/14 17:12:30;;;;;;;2.22;1.30;;;15.80;78.50;;;;;;2292560;62;30277;-72
2022/01/14 17:14:56;;;;;;;3.35;1.20;;;15.80;78.50;;;;;;2291443;62;30920;-71
2022/01/14 17:17:23;;;;;;;1.35;1.13;;;15.90;78.40;;;;;;2276442;62;30910;-70
2022/01/14 17:19:49;;;;;;;1.83;1.00;;;15.90;78.40;;;;;;2276946;62;30062;-71
2022/01/14 17:22:15;;;;;;;1.88;1.13;;;15.90;78.30;;;;;;2285989;62;30167;-71
2022/01/14 17:24:41;;;;;;;2.75;1.50;;;16.00;78.20;;;;;;2284187;62;30185;-70
2022/01/14 17:27:07;;;;;;;1.08;1.08;;;16.00;78.20;;;;;;2286931;62;31842;-71
2022/01/14 17:29:33;;;;;;;2.60;1.25;;;16.00;78.10;;;;;;2292560;62;30107;-72
2022/01/14 17:31:59;;;;;;;1.70;1.30;;;16.00;78.00;;;;;;2292574;62;30081;-70
2022/01/14 17:34:25;;;;;;;2.50;1.30;;;16.00;77.90;;;;;;2284952;62;30847;-71
2022/01/14 17:36:52;;;;;;;1.02;1.02;;;16.00;77.80;;;;;;2282464;62;30238;-75
2022/01/14 17:39:18;;;;;;;2.15;1.23;;;16.00;77.80;;;;;;2289674;62;30229;-71
2022/01/14 17:41:46;;;;;;;2.10;1.40;;;16.00;77.70;;;;;;2284615;62;30523;-71
2022/01/14 17:44:18;;;;;;;1.38;1.27;;;16.00;77.70;;;;;;2292558;62;30228;-72
2022/01/14 17:46:48;;;;;;;2.33;1.30;;;16.10;77.80;;;;;;2285512;62;30251;-72
2022/01/14 17:49:15;;;;;;;9.95;1.70;;;16.00;77.80;;;;;;2291859;62;30267;-73
2022/01/14 17:51:44;;;;;;;2.85;1.65;;;16.10;78.00;;;;;;2288131;62;30204;-72
2022/01/14 17:54:12;;;;;;;4.30;1.70;;;16.10;78.20;;;;;;2283524;62;31029;-71
2022/01/14 17:56:38;;;;;;;2.72;1.73;;;16.20;78.00;;;;;;2284797;62;30485;-71
2022/01/14 17:59:03;;;;;;;2.58;1.20;;;16.40;77.80;;;;;;2284131;62;30127;-75
2022/01/14 18:01:32;;;;;;;1.90;1.40;;;16.50;77.70;;;;;;2285007;62;30200;-72
2022/01/14 18:03:58;;;;;;;5.10;1.40;;;16.70;77.50;;;;;;2287323;62;30377;-74
2022/01/14 18:06:24;;;;;;;1.70;1.13;;;16.70;77.30;;;;;;2284431;62;30506;-74
2022/01/14 18:08:50;;;;;;;3.33;1.52;;;16.90;77.20;;;;;;2280352;62;30203;-72
2022/01/14 18:11:21;;;;;;;5.32;1.20;;;17.00;77.10;;;;;;2292051;62;30035;-71
2022/01/14 18:13:58;;;;;;;4.05;1.40;;;17.10;76.80;;;;;;2293752;62;30987;-70
2022/01/14 18:16:26;;;;;;;1.50;1.40;;;17.20;76.60;;;;;;2293419;62;30385;-71
2022/01/14 18:18:54;;;;;;;1.63;1.05;;;17.30;76.50;;;;;;2286300;62;30174;-71
2022/01/14 18:21:20;;;;;;;1.45;1.05;;;17.30;76.40;;;;;;2293332;62;30158;-72
2022/01/14 18:23:46;;;;;;;1.40;1.00;;;17.40;76.30;;;;;;2293387;62;30188;-73
2022/01/14 18:26:12;;;;;;;1.67;1.20;;;17.40;76.20;;;;;;2286180;62;30603;-71
2022/01/14 18:28:38;;;;;;;1.25;1.10;;;17.40;76.10;;;;;;2293702;62;30261;-71
2022/01/14 18:31:06;;;;;;;2.28;1.30;;;17.40;76.00;;;;;;2293319;62;30057;-71
2022/01/14 18:33:31;;;;;;;7.15;1.17;;;17.40;75.90;;;;;;2293510;62;30140;-70
2022/01/14 18:35:57;;;;;;;4.45;1.10;;;17.50;75.80;;;;;;2293164;62;30501;-70
2022/01/14 18:38:23;;;;;;;7.15;1.17;;;17.50;75.60;;;;;;2284359;62;30126;-71
2022/01/14 18:40:52;;;;;;;1.10;1.00;;;17.50;75.60;;;;;;2285006;62;30093;-70
2022/01/14 18:43:19;;;;;;;3.30;1.13;;;17.50;75.40;;;;;;2279269;62;30296;-71
2022/01/14 18:45:50;;;;;;;2.05;1.00;;;17.60;75.40;;;;;;2277622;62;30161;-72
2022/01/14 18:48:19;;;;;;;2.63;1.20;;;17.60;75.30;;;;;;2285223;62;30076;-71
2022/01/14 18:50:45;;;;;;;2.22;1.00;;;17.60;75.10;;;;;;2277516;62;30395;-71
2022/01/14 18:53:11;;;;;;;3.35;1.00;;;17.60;75.10;;;;;;2283798;62;30528;-71
2022/01/14 18:55:36;;;;;;;1.58;1.05;;;17.60;75.00;;;;;;2292177;62;30399;-71
2022/01/14 18:58:02;;;;;;;0.70;0.70;;;17.70;75.00;;;;;;2291923;62;30087;-71
2022/01/14 19:00:28;;;;;;;3.20;0.93;;;17.70;74.90;;;;;;2288191;62;30429;-71
2022/01/14 19:02:58;;;;;;;1.80;1.02;;;17.70;74.80;;;;;;2279511;62;30694;-70
2022/01/14 19:05:25;;;;;;;1.05;0.80;;;17.70;74.70;;;;;;2287802;62;30323;-70
2022/01/14 19:07:51;;;;;;;0.90;0.77;;;17.70;74.70;;;;;;2292009;62;30364;-70
2022/01/14 19:10:17;;;;;;;0.85;0.80;;;17.70;74.60;;;;;;2292251;62;30289;-70
2022/01/14 19:12:43;;;;;;;0.88;0.88;;;17.70;74.50;;;;;;2292192;62;31049;-70
2022/01/14 19:15:09;;;;;;;0.68;0.65;;;17.80;74.50;;;;;;2285009;62;30535;-70
2022/01/14 19:17:35;;;;;;;0.60;0.60;;;17.80;75.20;;;;;;2284802;62;30277;-71
2022/01/14 19:20:06;;;;;;;0.95;0.80;;;17.80;74.40;;;;;;2284834;62;30127;-71
2022/01/14 19:22:32;;;;;;;0.95;0.60;;;17.80;74.30;;;;;;2292214;62;30162;-72
2022/01/14 19:25:12;;;;;;;1.73;0.88;;;17.80;74.30;;;;;;2292190;62;30846;-72
2022/01/14 19:27:40;;;;;;;2.50;0.70;;;17.80;74.10;;;;;;2291988;62;30331;-72
2022/01/14 19:30:07;;;;;;;0.70;0.70;;;17.80;74.30;;;;;;2292174;62;30522;-72
2022/01/14 19:32:33;;;;;;;8.68;1.13;;;17.80;74.30;;;;;;2292319;62;30184;-72
2022/01/14 19:35:00;;;;;;;3.17;0.95;;;17.80;74.30;;;;;;2292107;62;30293;-71
2022/01/14 19:37:26;;;;;;;2.15;0.82;;;17.80;74.30;;;;;;2284710;62;30139;-74
2022/01/14 19:39:52;;;;;;;2.95;0.98;;;17.80;74.30;;;;;;2284661;62;30603;-73
2022/01/14 19:42:18;;;;;;;1.23;0.85;;;17.80;74.20;;;;;;2291391;62;30379;-71
2022/01/14 19:44:44;;;;;;;1.75;0.50;;;17.80;74.20;;;;;;2292068;62;30381;-71
2022/01/14 19:47:10;;;;;;;0.98;0.60;;;17.80;74.20;;;;;;2292135;62;30163;-71
2022/01/14 19:49:36;;;;;;;0.40;0.40;;;17.80;74.20;;;;;;2291783;62;30100;-72
2022/01/14 19:52:03;;;;;;;1.52;0.68;;;17.80;74.20;;;;;;2286759;62;30268;-71
2022/01/14 19:54:28;;;;;;;0.80;0.57;;;17.80;74.10;;;;;;2283703;62;30537;-71
2022/01/14 19:56:54;;;;;;;0.70;0.60;;;17.80;74.20;;;;;;2284073;62;30064;-71
2022/01/14 19:59:20;;;;;;;0.60;0.60;;;17.80;74.20;;;;;;2284823;62;30315;-71
2022/01/14 20:01:46;;;;;;;0.93;0.80;;;17.80;74.20;;;;;;2284578;62;30950;-70
2022/01/14 20:04:12;;;;;;;1.75;1.63;;;17.80;74.10;;;;;;2276759;62;31732;-70
2022/01/14 20:06:38;;;;;;;3.85;2.28;;;17.70;74.10;;;;;;2284684;62;30130;-70
2022/01/14 20:09:04;;;;;;;2.38;2.08;;;17.70;74.10;;;;;;2284339;62;30330;-70
2022/01/14 20:11:30;;;;;;;2.10;1.90;;;17.70;74.10;;;;;;2284732;62;30264;-70
2022/01/14 20:13:59;;;;;;;1.88;1.77;;;17.70;74.10;;;;;;2284747;62;31209;-70
2022/01/14 20:16:25;;;;;;;1.88;1.70;;;17.70;74.10;;;;;;2283715;62;29978;-71
2022/01/14 20:18:54;;;;;;;2.17;1.48;;;17.60;74.10;;;;;;2283928;62;30267;-70
2022/01/14 20:21:22;;;;;;;1.98;1.52;;;17.60;74.10;;;;;;2285384;62;32305;-71
2022/01/14 20:23:48;;;;;;;2.30;1.30;;;17.60;74.20;;;;;;2292661;62;30170;-70
2022/01/14 20:26:14;;;;;;;1.27;1.17;;;17.60;74.30;;;;;;2278398;62;30138;-70
2022/01/14 20:28:40;;;;;;;2.25;1.70;;;17.60;74.30;;;;;;2292922;62;30278;-70
2022/01/14 20:31:06;;;;;;;1.30;1.20;;;17.60;74.40;;;;;;2292632;62;30118;-70
2022/01/14 20:33:33;;;;;;;2.60;1.40;;;17.50;74.30;;;;;;2292893;62;30102;-71
2022/01/14 20:36:00;;;;;;;1.65;1.10;;;17.50;74.50;;;;;;2292406;62;30208;-70
2022/01/14 20:38:26;;;;;;;1.80;1.33;;;17.40;74.60;;;;;;2286702;62;30249;-70
2022/01/14 20:40:52;;;;;;;5.47;1.35;;;17.30;74.80;;;;;;2284576;62;30143;-72
2022/01/14 20:43:20;;;;;;;2.03;1.20;;;17.30;75.00;;;;;;2284574;62;30365;-73
2022/01/14 20:45:48;;;;;;;2.38;1.15;;;17.30;75.00;;;;;;2276943;62;30191;-73
2022/01/14 20:48:14;;;;;;;2.22;1.30;;;17.40;75.00;;;;;;2278121;62;30276;-86
2022/01/14 20:50:40;;;;;;;1.70;1.20;;;17.40;74.90;;;;;;2292689;62;30215;-83
2022/01/14 20:53:07;;;;;;;2.95;1.60;;;17.40;74.70;;;;;;2292501;62;30411;-85
2022/01/14 20:55:34;;;;;;;1.33;1.00;;;17.40;74.40;;;;;;2278394;62;30308;-84
2022/01/14 20:58:00;;;;;;;1.33;1.08;;;17.40;74.20;;;;;;2285042;62;30333;-84
2022/01/14 21:00:27;;;;;;;1.40;0.90;;;17.40;74.10;;;;;;2285282;62;30241;-86
2022/01/14 21:02:53;;;;;;;1.63;1.25;;;17.40;74.00;;;;;;2286260;62;30105;-93
2022/01/14 21:05:19;;;;;;;0.77;0.77;;;17.40;74.00;;;;;;2285514;62;30180;-90
2022/01/14 21:07:45;;;;;;;1.00;0.90;;;17.40;74.00;;;;;;2277067;62;30238;-89
2022/01/14 21:10:11;;;;;;;3.05;1.23;;;17.40;74.00;;;;;;2284508;62;30149;-89
2022/01/14 21:12:37;;;;;;;1.52;1.08;;;17.30;74.10;;;;;;2284431;62;30168;-87
2022/01/14 21:15:04;;;;;;;1.98;1.02;;;17.30;74.20;;;;;;2284064;62;30320;-88
2022/01/14 21:17:36;;;;;;;1.25;1.15;;;17.30;74.20;;;;;;2284632;62;30273;-87
2022/01/14 21:20:12;;;;;;;2.20;1.05;;;17.30;74.30;;;;;;2283794;62;30161;-92
2022/01/14 21:22:39;;;;;;;0.95;0.80;;;17.40;74.40;;;;;;2284455;62;30746;-91
2022/01/14 21:25:06;;;;;;;0.73;0.73;;;17.40;74.30;;;;;;2284753;62;30003;-89
2022/01/14 21:27:32;;;;;;;0.85;0.85;;;17.40;74.30;;;;;;2284368;62;30207;-93
2022/01/14 21:30:02;;;;;;;0.90;0.90;;;17.40;74.40;;;;;;2285117;62;30391;-88
2022/01/14 21:32:31;;;;;;;1.63;0.90;;;17.40;74.40;;;;;;2285808;62;30237;-88
2022/01/14 21:34:58;;;;;;;1.40;0.98;;;17.40;74.40;;;;;;2276955;62;30236;-80
2022/01/14 21:37:24;;;;;;;1.13;0.90;;;17.40;74.40;;;;;;2274747;62;30338;-80
2022/01/14 21:39:53;;;;;;;1.00;0.90;;;17.40;74.50;;;;;;2275487;62;30633;-82
2022/01/14 21:42:19;;;;;;;1.55;0.98;;;17.40;74.50;;;;;;2275712;62;30474;-80
2022/01/14 21:44:45;;;;;;;0.82;0.82;;;17.30;74.60;;;;;;2276070;62;30286;-80
2022/01/14 21:47:11;;;;;;;0.85;0.50;;;17.30;74.80;;;;;;2273948;62;31062;-79
2022/01/14 21:49:37;;;;;;;0.93;0.82;;;17.30;74.80;;;;;;2271169;62;30698;-77
2022/01/14 21:52:03;;;;;;;1.08;0.88;;;17.30;74.80;;;;;;2276135;62;30519;-79
2022/01/14 21:54:29;;;;;;;1.23;0.90;;;17.40;74.90;;;;;;2273136;62;30336;-77
2022/01/14 21:56:55;;;;;;;0.88;0.60;;;17.40;74.90;;;;;;2268048;62;30274;-79
2022/01/14 21:59:21;;;;;;;1.10;1.00;;;17.40;74.90;;;;;;2267974;62;31035;-80
2022/01/14 22:01:47;;;;;;;0.98;0.90;;;17.40;74.90;;;;;;2267733;62;30234;-78
2022/01/14 22:04:13;;;;;;;1.10;1.00;;;17.40;74.90;;;;;;2267837;62;30412;-80
2022/01/14 22:06:39;;;;;;;1.30;0.98;;;17.40;74.90;;;;;;2267994;62;30386;-81
2022/01/14 22:09:05;;;;;;;0.80;0.80;;;17.40;74.90;;;;;;2267712;62;30135;-73
2022/01/14 22:11:32;;;;;;;0.90;0.90;;;17.30;74.90;;;;;;2276248;62;30852;-72
2022/01/14 22:14:03;;;;;;;1.10;0.80;;;17.30;75.10;;;;;;2276017;62;30193;-73
2022/01/14 22:16:29;;;;;;;0.90;0.82;;;17.30;75.20;;;;;;2275935;62;30949;-73
2022/01/14 22:18:55;;;;;;;0.80;0.80;;;17.30;75.30;;;;;;2275890;62;30216;-73
2022/01/14 22:21:23;;;;;;;1.00;0.90;;;17.30;75.30;;;;;;2275963;62;30709;-73
2022/01/14 22:23:52;;;;;;;1.02;0.85;;;17.40;75.30;;;;;;2275874;62;30253;-73
2022/01/14 22:26:19;;;;;;;0.80;0.80;;;17.40;75.30;;;;;;2275520;62;30501;-74
2022/01/14 22:28:44;;;;;;;0.95;0.85;;;17.40;75.20;;;;;;2275223;62;30343;-73
2022/01/14 22:31:11;;;;;;;1.33;1.20;;;17.40;75.20;;;;;;2270718;62;30835;-71
2022/01/14 22:33:37;;;;;;;1.38;1.10;;;17.40;75.20;;;;;;2275400;62;30146;-73
2022/01/14 22:36:04;;;;;;;0.90;0.88;;;17.40;75.20;;;;;;2275395;62;30307;-71
2022/01/14 22:38:30;;;;;;;0.93;0.90;;;17.40;75.20;;;;;;2274876;62;31013;-71
2022/01/14 22:40:56;;;;;;;1.00;1.00;;;17.30;75.10;;;;;;2275900;62;30786;-72
2022/01/14 22:43:22;;;;;;;0.82;0.82;;;17.30;75.20;;;;;;2275426;62;30370;-71
2022/01/14 22:45:50;;;;;;;1.48;1.10;;;17.30;75.30;;;;;;2275886;62;30366;-71
2022/01/14 22:48:17;;;;;;;1.13;1.02;;;17.30;75.20;;;;;;2267804;62;30259;-71
2022/01/14 22:50:43;;;;;;;1.20;1.00;;;17.30;75.30;;;;;;2275655;62;30117;-72
2022/01/14 22:53:09;;;;;;;1.30;1.20;;;17.30;75.20;;;;;;2275253;62;30193;-74
2022/01/14 22:55:35;;;;;;;1.48;1.38;;;17.40;75.90;;;;;;2276058;62;30034;-74
2022/01/14 22:58:02;;;;;;;1.50;1.40;;;17.40;75.20;;;;;;2275397;62;30175;-73
2022/01/14 23:00:28;;;;;;;1.38;1.27;;;17.40;75.10;;;;;;2271428;62;30876;-71
2022/01/14 23:02:55;;;;;;;1.65;1.20;;;17.40;75.10;;;;;;2273805;62;30261;-73
2022/01/14 23:05:21;;;;;;;1.60;1.50;;;17.40;75.10;;;;;;2265221;62;30171;-72
2022/01/14 23:07:50;;;;;;;1.35;1.25;;;17.30;75.00;;;;;;2272337;62;31192;-72
2022/01/14 23:10:17;;;;;;;2.53;1.30;;;17.30;75.10;;;;;;2269821;62;30744;-72
2022/01/14 23:12:43;;;;;;;1.23;1.13;;;17.30;75.20;;;;;;2283815;62;30475;-73
2022/01/14 23:15:13;;;;;;;1.20;1.10;;;17.30;75.20;;;;;;2284066;62;30217;-73
2022/01/14 23:17:40;;;;;;;1.20;1.10;;;17.30;75.20;;;;;;2279273;62;30206;-75
2022/01/14 23:20:07;;;;;;;1.23;1.20;;;17.30;75.10;;;;;;2291797;62;30248;-73
2022/01/14 23:22:34;;;;;;;1.60;1.33;;;17.30;75.10;;;;;;2280848;62;30390;-71
2022/01/14 23:25:06;;;;;;;1.40;1.25;;;17.40;75.10;;;;;;2284160;62;30304;-74
2022/01/14 23:27:32;;;;;;;1.55;1.23;;;17.40;75.10;;;;;;2291614;62;30870;-75
2022/01/14 23:29:57;;;;;;;1.45;1.10;;;17.40;75.10;;;;;;2290981;62;30515;-74
2022/01/14 23:32:23;;;;;;;1.40;1.30;;;17.30;75.00;;;;;;2290523;62;30212;-74
2022/01/14 23:34:49;;;;;;;1.20;1.10;;;17.30;74.90;;;;;;2291858;62;30122;-71
2022/01/14 23:37:18;;;;;;;1.23;1.13;;;17.30;75.00;;;;;;2292186;62;31995;-73
2022/01/14 23:39:44;;;;;;;1.30;1.10;;;17.20;75.00;;;;;;2292357;62;30659;-72
2022/01/14 23:42:12;;;;;;;0.98;0.90;;;17.20;75.00;;;;;;2291863;62;30417;-73
2022/01/14 23:44:45;;;;;;;1.33;1.20;;;17.10;75.00;;;;;;2292128;62;30226;-73
